sensor_id;sensor_type;location;lat;lon;timestamp;P1;durP1;ratioP1;P2;durP2;ratioP2
78324;SDS011;67584;51.400;6.692;2023-02-15T00:01:20;27.90;;;16.15;;
78324;SDS011;67584;51.400;6.692;2023-02-15T00:03:48;26.95;;;16.52;;
78324;SDS011;67584;51.400;6.692;2023-02-15T00:06:14;28.95;;;16.67;;
78324;SDS011;67584;51.400;6.692;2023-02-15T00:08:40;26.02;;;14.52;;
78324;SDS011;67584;51.400;6.692;2023-02-15T00:11:07;29.38;;;16.55;;
78324;SDS011;67584;51.400;6.692;2023-02-15T00:13:34;26.27;;;15.35;;
78324;SDS011;67584;51.400;6.692;2023-02-15T00:16:08;21.95;;;13.15;;
78324;SDS011;67584;51.400;6.692;2023-02-15T00:18:35;26.30;;;12.85;;
78324;SDS011;67584;51.400;6.692;2023-02-15T00:21:08;27.63;;;16.00;;
78324;SDS011;67584;51.400;6.692;2023-02-15T00:23:35;29.75;;;17.98;;
78324;SDS011;67584;51.400;6.692;2023-02-15T00:26:07;26.48;;;15.57;;
78324;SDS011;67584;51.400;6.692;2023-02-15T00:28:35;24.75;;;14.02;;
78324;SDS011;67584;51.400;6.692;2023-02-15T00:31:19;31.98;;;18.15;;
78324;SDS011;67584;51.400;6.692;2023-02-15T00:33:45;29.45;;;16.55;;
78324;SDS011;67584;51.400;6.692;2023-02-15T00:36:12;31.35;;;15.77;;
78324;SDS011;67584;51.400;6.692;2023-02-15T00:38:38;28.95;;;15.93;;
78324;SDS011;67584;51.400;6.692;2023-02-15T00:41:05;28.83;;;16.08;;
78324;SDS011;67584;51.400;6.692;2023-02-15T00:43:32;28.25;;;16.38;;
78324;SDS011;67584;51.400;6.692;2023-02-15T00:46:02;25.73;;;14.98;;
78324;SDS011;67584;51.400;6.692;2023-02-15T00:48:28;27.90;;;16.20;;
78324;SDS011;67584;51.400;6.692;2023-02-15T00:50:58;33.05;;;16.65;;
78324;SDS011;67584;51.400;6.692;2023-02-15T00:53:25;26.65;;;14.95;;
78324;SDS011;67584;51.400;6.692;2023-02-15T00:55:51;26.75;;;14.68;;
78324;SDS011;67584;51.400;6.692;2023-02-15T00:58:17;27.25;;;17.13;;
78324;SDS011;67584;51.400;6.692;2023-02-15T01:00:45;31.63;;;15.95;;
78324;SDS011;67584;51.400;6.692;2023-02-15T01:03:12;31.92;;;17.25;;
78324;SDS011;67584;51.400;6.692;2023-02-15T01:05:39;29.05;;;16.23;;
78324;SDS011;67584;51.400;6.692;2023-02-15T01:08:05;29.88;;;16.98;;
78324;SDS011;67584;51.400;6.692;2023-02-15T01:10:32;32.17;;;18.40;;
78324;SDS011;67584;51.400;6.692;2023-02-15T01:12:59;27.00;;;15.57;;
78324;SDS011;67584;51.400;6.692;2023-02-15T01:15:25;28.48;;;16.58;;
78324;SDS011;67584;51.400;6.692;2023-02-15T01:17:51;30.25;;;17.05;;
78324;SDS011;67584;51.400;6.692;2023-02-15T01:22:48;28.95;;;16.25;;
78324;SDS011;67584;51.400;6.692;2023-02-15T01:25:18;32.85;;;18.02;;
78324;SDS011;67584;51.400;6.692;2023-02-15T01:27:48;25.52;;;14.73;;
78324;SDS011;67584;51.400;6.692;2023-02-15T01:30:14;31.98;;;16.60;;
78324;SDS011;67584;51.400;6.692;2023-02-15T01:32:40;28.50;;;15.70;;
78324;SDS011;67584;51.400;6.692;2023-02-15T01:35:07;33.30;;;15.80;;
78324;SDS011;67584;51.400;6.692;2023-02-15T01:37:34;33.33;;;17.90;;
78324;SDS011;67584;51.400;6.692;2023-02-15T01:40:01;31.42;;;16.27;;
78324;SDS011;67584;51.400;6.692;2023-02-15T01:42:31;30.35;;;17.10;;
78324;SDS011;67584;51.400;6.692;2023-02-15T01:44:58;30.92;;;16.45;;
78324;SDS011;67584;51.400;6.692;2023-02-15T01:52:38;31.60;;;18.67;;
78324;SDS011;67584;51.400;6.692;2023-02-15T01:55:10;28.85;;;14.95;;
78324;SDS011;67584;51.400;6.692;2023-02-15T01:57:37;27.88;;;15.98;;
78324;SDS011;67584;51.400;6.692;2023-02-15T02:00:04;28.98;;;15.65;;
78324;SDS011;67584;51.400;6.692;2023-02-15T02:02:37;29.75;;;16.33;;
78324;SDS011;67584;51.400;6.692;2023-02-15T02:05:04;31.17;;;17.27;;
78324;SDS011;67584;51.400;6.692;2023-02-15T02:07:33;30.63;;;17.15;;
78324;SDS011;67584;51.400;6.692;2023-02-15T02:10:04;36.47;;;17.33;;
78324;SDS011;67584;51.400;6.692;2023-02-15T02:12:32;33.05;;;16.90;;
78324;SDS011;67584;51.400;6.692;2023-02-15T02:14:59;32.65;;;18.27;;
78324;SDS011;67584;51.400;6.692;2023-02-15T02:22:49;29.02;;;16.98;;
78324;SDS011;67584;51.400;6.692;2023-02-15T02:34:08;29.42;;;14.98;;
78324;SDS011;67584;51.400;6.692;2023-02-15T02:39:33;28.48;;;17.23;;
78324;SDS011;67584;51.400;6.692;2023-02-15T02:42:13;30.52;;;16.90;;
78324;SDS011;67584;51.400;6.692;2023-02-15T02:44:46;31.08;;;15.07;;
78324;SDS011;67584;51.400;6.692;2023-02-15T02:47:21;29.45;;;16.65;;
78324;SDS011;67584;51.400;6.692;2023-02-15T02:50:00;30.02;;;15.63;;
78324;SDS011;67584;51.400;6.692;2023-02-15T02:52:42;31.63;;;16.15;;
78324;SDS011;67584;51.400;6.692;2023-02-15T02:57:40;27.85;;;16.67;;
78324;SDS011;67584;51.400;6.692;2023-02-15T03:00:22;29.77;;;17.33;;
78324;SDS011;67584;51.400;6.692;2023-02-15T03:02:52;32.97;;;17.30;;
78324;SDS011;67584;51.400;6.692;2023-02-15T03:05:23;30.02;;;17.13;;
78324;SDS011;67584;51.400;6.692;2023-02-15T03:07:54;36.05;;;18.30;;
78324;SDS011;67584;51.400;6.692;2023-02-15T03:10:22;33.60;;;17.60;;
78324;SDS011;67584;51.400;6.692;2023-02-15T03:12:49;32.72;;;18.27;;
78324;SDS011;67584;51.400;6.692;2023-02-15T03:15:21;32.72;;;18.85;;
78324;SDS011;67584;51.400;6.692;2023-02-15T03:18:11;30.42;;;17.38;;
78324;SDS011;67584;51.400;6.692;2023-02-15T03:20:38;31.30;;;17.15;;
78324;SDS011;67584;51.400;6.692;2023-02-15T03:23:05;31.25;;;17.48;;
78324;SDS011;67584;51.400;6.692;2023-02-15T03:25:36;29.30;;;16.60;;
78324;SDS011;67584;51.400;6.692;2023-02-15T03:28:11;33.85;;;17.73;;
78324;SDS011;67584;51.400;6.692;2023-02-15T03:30:43;27.20;;;15.40;;
78324;SDS011;67584;51.400;6.692;2023-02-15T03:33:12;30.42;;;17.98;;
78324;SDS011;67584;51.400;6.692;2023-02-15T03:35:44;32.65;;;18.02;;
78324;SDS011;67584;51.400;6.692;2023-02-15T03:38:25;31.75;;;17.65;;
78324;SDS011;67584;51.400;6.692;2023-02-15T03:40:58;33.38;;;17.88;;
78324;SDS011;67584;51.400;6.692;2023-02-15T03:46:16;31.60;;;17.17;;
78324;SDS011;67584;51.400;6.692;2023-02-15T03:48:57;27.65;;;15.82;;
78324;SDS011;67584;51.400;6.692;2023-02-15T03:51:31;30.15;;;16.50;;
78324;SDS011;67584;51.400;6.692;2023-02-15T03:54:07;33.03;;;17.65;;
78324;SDS011;67584;51.400;6.692;2023-02-15T03:59:02;35.17;;;17.23;;
78324;SDS011;67584;51.400;6.692;2023-02-15T04:04:33;32.78;;;15.32;;
78324;SDS011;67584;51.400;6.692;2023-02-15T04:07:02;31.13;;;17.50;;
78324;SDS011;67584;51.400;6.692;2023-02-15T04:09:29;36.55;;;18.77;;
78324;SDS011;67584;51.400;6.692;2023-02-15T04:12:13;33.53;;;16.33;;
78324;SDS011;67584;51.400;6.692;2023-02-15T04:14:41;33.33;;;17.73;;
78324;SDS011;67584;51.400;6.692;2023-02-15T04:17:26;33.83;;;18.40;;
78324;SDS011;67584;51.400;6.692;2023-02-15T04:19:52;34.45;;;17.92;;
78324;SDS011;67584;51.400;6.692;2023-02-15T04:22:36;39.78;;;20.02;;
78324;SDS011;67584;51.400;6.692;2023-02-15T04:25:20;35.72;;;18.05;;
78324;SDS011;67584;51.400;6.692;2023-02-15T04:27:50;37.20;;;19.33;;
78324;SDS011;67584;51.400;6.692;2023-02-15T04:30:19;33.03;;;18.58;;
78324;SDS011;67584;51.400;6.692;2023-02-15T04:32:47;35.10;;;17.85;;
78324;SDS011;67584;51.400;6.692;2023-02-15T04:35:13;36.05;;;17.90;;
78324;SDS011;67584;51.400;6.692;2023-02-15T04:37:40;31.40;;;16.98;;
78324;SDS011;67584;51.400;6.692;2023-02-15T04:40:07;31.13;;;16.98;;
78324;SDS011;67584;51.400;6.692;2023-02-15T04:42:35;30.02;;;16.95;;
78324;SDS011;67584;51.400;6.692;2023-02-15T04:45:01;32.03;;;16.40;;
78324;SDS011;67584;51.400;6.692;2023-02-15T04:47:27;33.25;;;18.10;;
78324;SDS011;67584;51.400;6.692;2023-02-15T04:49:53;34.00;;;19.33;;
78324;SDS011;67584;51.400;6.692;2023-02-15T04:52:19;35.03;;;19.38;;
78324;SDS011;67584;51.400;6.692;2023-02-15T04:54:44;36.33;;;18.77;;
78324;SDS011;67584;51.400;6.692;2023-02-15T04:57:10;32.60;;;15.77;;
78324;SDS011;67584;51.400;6.692;2023-02-15T04:59:36;30.98;;;15.45;;
78324;SDS011;67584;51.400;6.692;2023-02-15T05:02:02;29.92;;;14.38;;
78324;SDS011;67584;51.400;6.692;2023-02-15T05:04:28;35.03;;;18.08;;
78324;SDS011;67584;51.400;6.692;2023-02-15T05:06:53;34.35;;;18.55;;
78324;SDS011;67584;51.400;6.692;2023-02-15T05:09:19;30.90;;;16.25;;
78324;SDS011;67584;51.400;6.692;2023-02-15T05:11:45;32.22;;;17.98;;
78324;SDS011;67584;51.400;6.692;2023-02-15T05:14:11;36.17;;;17.40;;
78324;SDS011;67584;51.400;6.692;2023-02-15T05:16:36;32.60;;;17.90;;
78324;SDS011;67584;51.400;6.692;2023-02-15T05:19:02;31.98;;;18.30;;
78324;SDS011;67584;51.400;6.692;2023-02-15T05:21:28;29.08;;;16.52;;
78324;SDS011;67584;51.400;6.692;2023-02-15T05:23:54;31.73;;;17.52;;
78324;SDS011;67584;51.400;6.692;2023-02-15T05:26:21;31.48;;;16.65;;
78324;SDS011;67584;51.400;6.692;2023-02-15T05:29:06;34.60;;;17.27;;
78324;SDS011;67584;51.400;6.692;2023-02-15T05:31:33;31.38;;;16.98;;
78324;SDS011;67584;51.400;6.692;2023-02-15T05:33:59;35.00;;;17.92;;
78324;SDS011;67584;51.400;6.692;2023-02-15T05:36:25;32.20;;;17.65;;
78324;SDS011;67584;51.400;6.692;2023-02-15T05:38:51;37.08;;;18.27;;
78324;SDS011;67584;51.400;6.692;2023-02-15T05:41:17;34.50;;;18.00;;
78324;SDS011;67584;51.400;6.692;2023-02-15T05:43:43;34.00;;;20.05;;
78324;SDS011;67584;51.400;6.692;2023-02-15T05:46:08;31.67;;;16.88;;
78324;SDS011;67584;51.400;6.692;2023-02-15T05:48:35;40.30;;;19.10;;
78324;SDS011;67584;51.400;6.692;2023-02-15T05:53:30;33.15;;;18.38;;
78324;SDS011;67584;51.400;6.692;2023-02-15T05:55:57;35.50;;;18.65;;
78324;SDS011;67584;51.400;6.692;2023-02-15T05:58:26;32.88;;;18.50;;
78324;SDS011;67584;51.400;6.692;2023-02-15T06:00:52;35.28;;;18.55;;
78324;SDS011;67584;51.400;6.692;2023-02-15T06:03:18;33.70;;;19.02;;
78324;SDS011;67584;51.400;6.692;2023-02-15T06:05:43;38.15;;;18.75;;
78324;SDS011;67584;51.400;6.692;2023-02-15T06:08:09;38.72;;;18.95;;
78324;SDS011;67584;51.400;6.692;2023-02-15T06:10:35;37.45;;;18.92;;
78324;SDS011;67584;51.400;6.692;2023-02-15T06:13:00;36.40;;;18.35;;
78324;SDS011;67584;51.400;6.692;2023-02-15T06:15:26;32.80;;;18.58;;
78324;SDS011;67584;51.400;6.692;2023-02-15T06:17:52;36.22;;;18.70;;
78324;SDS011;67584;51.400;6.692;2023-02-15T06:20:17;35.35;;;18.27;;
78324;SDS011;67584;51.400;6.692;2023-02-15T06:22:43;29.20;;;14.80;;
78324;SDS011;67584;51.400;6.692;2023-02-15T06:25:08;34.08;;;17.55;;
78324;SDS011;67584;51.400;6.692;2023-02-15T06:27:36;34.33;;;17.50;;
78324;SDS011;67584;51.400;6.692;2023-02-15T06:30:03;27.65;;;15.77;;
78324;SDS011;67584;51.400;6.692;2023-02-15T06:32:30;32.33;;;17.67;;
78324;SDS011;67584;51.400;6.692;2023-02-15T06:34:56;33.83;;;17.15;;
78324;SDS011;67584;51.400;6.692;2023-02-15T06:37:22;32.75;;;18.08;;
78324;SDS011;67584;51.400;6.692;2023-02-15T06:39:48;36.80;;;19.00;;
78324;SDS011;67584;51.400;6.692;2023-02-15T06:42:13;30.35;;;15.27;;
78324;SDS011;67584;51.400;6.692;2023-02-15T06:44:39;29.33;;;16.08;;
78324;SDS011;67584;51.400;6.692;2023-02-15T06:47:05;28.08;;;15.45;;
78324;SDS011;67584;51.400;6.692;2023-02-15T06:49:30;32.60;;;15.73;;
78324;SDS011;67584;51.400;6.692;2023-02-15T06:51:56;30.38;;;16.90;;
78324;SDS011;67584;51.400;6.692;2023-02-15T06:54:21;29.25;;;16.20;;
78324;SDS011;67584;51.400;6.692;2023-02-15T06:56:47;28.52;;;15.65;;
78324;SDS011;67584;51.400;6.692;2023-02-15T06:59:13;29.73;;;16.05;;
78324;SDS011;67584;51.400;6.692;2023-02-15T07:01:38;30.92;;;17.70;;
78324;SDS011;67584;51.400;6.692;2023-02-15T07:04:04;28.35;;;14.88;;
78324;SDS011;67584;51.400;6.692;2023-02-15T07:06:33;21.92;;;13.77;;
78324;SDS011;67584;51.400;6.692;2023-02-15T07:11:25;28.95;;;14.82;;
78324;SDS011;67584;51.400;6.692;2023-02-15T07:14:09;18.58;;;11.68;;
78324;SDS011;67584;51.400;6.692;2023-02-15T07:16:35;26.85;;;14.77;;
78324;SDS011;67584;51.400;6.692;2023-02-15T07:19:01;31.15;;;17.35;;
78324;SDS011;67584;51.400;6.692;2023-02-15T07:21:27;28.83;;;16.23;;
78324;SDS011;67584;51.400;6.692;2023-02-15T07:23:55;29.50;;;15.77;;
78324;SDS011;67584;51.400;6.692;2023-02-15T07:26:21;31.55;;;16.02;;
78324;SDS011;67584;51.400;6.692;2023-02-15T07:28:47;30.83;;;16.33;;
78324;SDS011;67584;51.400;6.692;2023-02-15T07:31:13;29.60;;;16.30;;
78324;SDS011;67584;51.400;6.692;2023-02-15T07:33:39;22.70;;;12.68;;
78324;SDS011;67584;51.400;6.692;2023-02-15T07:36:04;29.08;;;15.60;;
78324;SDS011;67584;51.400;6.692;2023-02-15T07:38:34;31.98;;;17.20;;
78324;SDS011;67584;51.400;6.692;2023-02-15T07:41:02;28.95;;;15.73;;
78324;SDS011;67584;51.400;6.692;2023-02-15T07:43:32;24.67;;;15.30;;
78324;SDS011;67584;51.400;6.692;2023-02-15T07:45:59;30.23;;;16.52;;
78324;SDS011;67584;51.400;6.692;2023-02-15T07:48:26;30.98;;;16.92;;
78324;SDS011;67584;51.400;6.692;2023-02-15T07:50:52;30.55;;;16.77;;
78324;SDS011;67584;51.400;6.692;2023-02-15T07:53:18;29.20;;;17.83;;
78324;SDS011;67584;51.400;6.692;2023-02-15T07:55:43;28.98;;;15.43;;
78324;SDS011;67584;51.400;6.692;2023-02-15T07:58:09;31.95;;;17.80;;
78324;SDS011;67584;51.400;6.692;2023-02-15T08:00:34;32.30;;;16.83;;
78324;SDS011;67584;51.400;6.692;2023-02-15T08:03:22;26.85;;;14.05;;
78324;SDS011;67584;51.400;6.692;2023-02-15T08:05:51;31.00;;;15.88;;
78324;SDS011;67584;51.400;6.692;2023-02-15T08:08:22;31.45;;;16.55;;
78324;SDS011;67584;51.400;6.692;2023-02-15T08:13:57;25.13;;;15.35;;
78324;SDS011;67584;51.400;6.692;2023-02-15T08:16:35;28.08;;;15.10;;
78324;SDS011;67584;51.400;6.692;2023-02-15T08:19:21;22.85;;;13.50;;
78324;SDS011;67584;51.400;6.692;2023-02-15T08:21:52;25.58;;;14.65;;
78324;SDS011;67584;51.400;6.692;2023-02-15T08:24:20;21.63;;;12.68;;
78324;SDS011;67584;51.400;6.692;2023-02-15T08:26:47;29.10;;;16.85;;
78324;SDS011;67584;51.400;6.692;2023-02-15T08:29:14;26.33;;;15.35;;
78324;SDS011;67584;51.400;6.692;2023-02-15T08:31:41;27.45;;;15.27;;
78324;SDS011;67584;51.400;6.692;2023-02-15T08:34:07;30.63;;;16.83;;
78324;SDS011;67584;51.400;6.692;2023-02-15T08:36:34;32.33;;;16.70;;
78324;SDS011;67584;51.400;6.692;2023-02-15T08:39:01;30.67;;;17.55;;
78324;SDS011;67584;51.400;6.692;2023-02-15T08:41:29;28.90;;;15.98;;
78324;SDS011;67584;51.400;6.692;2023-02-15T08:44:00;28.35;;;16.38;;
78324;SDS011;67584;51.400;6.692;2023-02-15T08:46:28;31.25;;;16.02;;
78324;SDS011;67584;51.400;6.692;2023-02-15T08:48:56;32.42;;;15.95;;
78324;SDS011;67584;51.400;6.692;2023-02-15T08:51:23;28.33;;;15.43;;
78324;SDS011;67584;51.400;6.692;2023-02-15T08:53:52;24.52;;;13.00;;
78324;SDS011;67584;51.400;6.692;2023-02-15T08:56:21;26.42;;;15.25;;
78324;SDS011;67584;51.400;6.692;2023-02-15T08:58:49;31.00;;;15.52;;
78324;SDS011;67584;51.400;6.692;2023-02-15T09:01:17;22.95;;;15.52;;
78324;SDS011;67584;51.400;6.692;2023-02-15T09:03:45;24.40;;;15.75;;
78324;SDS011;67584;51.400;6.692;2023-02-15T09:06:18;29.20;;;14.35;;
78324;SDS011;67584;51.400;6.692;2023-02-15T09:08:44;25.75;;;15.20;;
78324;SDS011;67584;51.400;6.692;2023-02-15T09:13:53;23.00;;;14.77;;
78324;SDS011;67584;51.400;6.692;2023-02-15T09:16:24;20.65;;;13.15;;
78324;SDS011;67584;51.400;6.692;2023-02-15T09:18:52;20.73;;;11.93;;
78324;SDS011;67584;51.400;6.692;2023-02-15T09:21:20;24.65;;;13.68;;
78324;SDS011;67584;51.400;6.692;2023-02-15T09:23:48;20.70;;;13.48;;
78324;SDS011;67584;51.400;6.692;2023-02-15T09:26:16;21.52;;;13.15;;
78324;SDS011;67584;51.400;6.692;2023-02-15T09:28:43;20.38;;;13.70;;
78324;SDS011;67584;51.400;6.692;2023-02-15T09:31:12;21.35;;;12.55;;
78324;SDS011;67584;51.400;6.692;2023-02-15T09:33:41;22.55;;;12.55;;
78324;SDS011;67584;51.400;6.692;2023-02-15T09:36:23;21.42;;;11.82;;
78324;SDS011;67584;51.400;6.692;2023-02-15T09:38:53;19.48;;;13.13;;
78324;SDS011;67584;51.400;6.692;2023-02-15T09:46:42;21.25;;;13.27;;
78324;SDS011;67584;51.400;6.692;2023-02-15T09:49:22;20.35;;;13.95;;
78324;SDS011;67584;51.400;6.692;2023-02-15T09:57:27;19.50;;;12.60;;
78324;SDS011;67584;51.400;6.692;2023-02-15T10:05:54;18.70;;;12.20;;
78324;SDS011;67584;51.400;6.692;2023-02-15T10:17:14;20.95;;;13.52;;
78324;SDS011;67584;51.400;6.692;2023-02-15T10:20:08;18.20;;;11.32;;
78324;SDS011;67584;51.400;6.692;2023-02-15T10:22:53;21.48;;;12.13;;
78324;SDS011;67584;51.400;6.692;2023-02-15T10:27:50;19.02;;;13.68;;
78324;SDS011;67584;51.400;6.692;2023-02-15T10:30:31;18.13;;;10.95;;
78324;SDS011;67584;51.400;6.692;2023-02-15T10:33:13;19.02;;;11.98;;
78324;SDS011;67584;51.400;6.692;2023-02-15T10:42:10;21.85;;;12.90;;
78324;SDS011;67584;51.400;6.692;2023-02-15T10:47:31;17.10;;;12.80;;
78324;SDS011;67584;51.400;6.692;2023-02-15T10:55:41;17.92;;;12.25;;
78324;SDS011;67584;51.400;6.692;2023-02-15T11:06:35;20.08;;;12.02;;
78324;SDS011;67584;51.400;6.692;2023-02-15T11:09:11;16.35;;;10.75;;
78324;SDS011;67584;51.400;6.692;2023-02-15T11:11:40;14.88;;;9.57;;
78324;SDS011;67584;51.400;6.692;2023-02-15T11:14:12;16.63;;;10.63;;
78324;SDS011;67584;51.400;6.692;2023-02-15T11:16:53;19.13;;;11.75;;
78324;SDS011;67584;51.400;6.692;2023-02-15T11:21:53;19.65;;;12.60;;
78324;SDS011;67584;51.400;6.692;2023-02-15T11:24:24;16.30;;;11.23;;
78324;SDS011;67584;51.400;6.692;2023-02-15T11:29:41;18.60;;;11.23;;
78324;SDS011;67584;51.400;6.692;2023-02-15T11:37:21;16.67;;;11.10;;
78324;SDS011;67584;51.400;6.692;2023-02-15T11:39:54;19.98;;;11.52;;
78324;SDS011;67584;51.400;6.692;2023-02-15T11:42:20;15.80;;;11.23;;
78324;SDS011;67584;51.400;6.692;2023-02-15T11:45:01;18.17;;;12.38;;
78324;SDS011;67584;51.400;6.692;2023-02-15T11:47:31;16.38;;;10.95;;
78324;SDS011;67584;51.400;6.692;2023-02-15T11:49:57;18.65;;;12.05;;
78324;SDS011;67584;51.400;6.692;2023-02-15T11:52:23;23.83;;;14.02;;
78324;SDS011;67584;51.400;6.692;2023-02-15T11:54:50;15.95;;;9.93;;
78324;SDS011;67584;51.400;6.692;2023-02-15T11:59:58;19.83;;;11.63;;
78324;SDS011;67584;51.400;6.692;2023-02-15T12:02:33;16.35;;;11.73;;
78324;SDS011;67584;51.400;6.692;2023-02-15T12:05:12;18.05;;;11.30;;
78324;SDS011;67584;51.400;6.692;2023-02-15T12:08:01;17.80;;;12.45;;
78324;SDS011;67584;51.400;6.692;2023-02-15T12:10:38;18.10;;;11.25;;
78324;SDS011;67584;51.400;6.692;2023-02-15T12:15:42;21.70;;;13.27;;
78324;SDS011;67584;51.400;6.692;2023-02-15T12:21:10;20.50;;;13.52;;
78324;SDS011;67584;51.400;6.692;2023-02-15T12:23:51;22.15;;;14.98;;
78324;SDS011;67584;51.400;6.692;2023-02-15T12:26:26;21.45;;;13.20;;
78324;SDS011;67584;51.400;6.692;2023-02-15T12:28:54;20.63;;;13.82;;
78324;SDS011;67584;51.400;6.692;2023-02-15T12:31:43;19.38;;;13.15;;
78324;SDS011;67584;51.400;6.692;2023-02-15T12:34:18;21.25;;;13.18;;
78324;SDS011;67584;51.400;6.692;2023-02-15T12:39:26;16.48;;;11.82;;
78324;SDS011;67584;51.400;6.692;2023-02-15T12:44:20;16.05;;;12.05;;
78324;SDS011;67584;51.400;6.692;2023-02-15T12:47:03;18.30;;;12.55;;
78324;SDS011;67584;51.400;6.692;2023-02-15T12:49:42;18.63;;;14.15;;
78324;SDS011;67584;51.400;6.692;2023-02-15T12:54:45;18.42;;;13.48;;
78324;SDS011;67584;51.400;6.692;2023-02-15T12:57:21;18.50;;;13.52;;
78324;SDS011;67584;51.400;6.692;2023-02-15T13:00:02;17.58;;;13.60;;
78324;SDS011;67584;51.400;6.692;2023-02-15T13:02:50;21.08;;;13.07;;
78324;SDS011;67584;51.400;6.692;2023-02-15T13:05:34;19.17;;;12.77;;
78324;SDS011;67584;51.400;6.692;2023-02-15T13:08:37;17.27;;;14.15;;
78324;SDS011;67584;51.400;6.692;2023-02-15T13:11:07;17.48;;;11.35;;
78324;SDS011;67584;51.400;6.692;2023-02-15T13:13:50;19.67;;;11.48;;
78324;SDS011;67584;51.400;6.692;2023-02-15T13:16:19;15.85;;;11.85;;
78324;SDS011;67584;51.400;6.692;2023-02-15T13:19:15;17.88;;;12.07;;
78324;SDS011;67584;51.400;6.692;2023-02-15T13:21:43;17.40;;;13.05;;
78324;SDS011;67584;51.400;6.692;2023-02-15T13:24:18;15.65;;;11.50;;
78324;SDS011;67584;51.400;6.692;2023-02-15T13:26:48;16.98;;;12.60;;
78324;SDS011;67584;51.400;6.692;2023-02-15T13:29:27;15.95;;;11.77;;
78324;SDS011;67584;51.400;6.692;2023-02-15T13:31:55;18.02;;;12.75;;
78324;SDS011;67584;51.400;6.692;2023-02-15T13:34:28;14.00;;;10.98;;
78324;SDS011;67584;51.400;6.692;2023-02-15T13:37:16;15.27;;;11.80;;
78324;SDS011;67584;51.400;6.692;2023-02-15T13:40:14;14.95;;;11.68;;
78324;SDS011;67584;51.400;6.692;2023-02-15T13:42:49;19.00;;;12.43;;
78324;SDS011;67584;51.400;6.692;2023-02-15T13:47:57;14.52;;;12.70;;
78324;SDS011;67584;51.400;6.692;2023-02-15T13:53:36;17.25;;;11.63;;
78324;SDS011;67584;51.400;6.692;2023-02-15T14:02:03;16.60;;;12.68;;
78324;SDS011;67584;51.400;6.692;2023-02-15T14:10:53;18.38;;;11.43;;
78324;SDS011;67584;51.400;6.692;2023-02-15T14:13:53;15.90;;;11.07;;
78324;SDS011;67584;51.400;6.692;2023-02-15T14:16:41;16.95;;;13.90;;
78324;SDS011;67584;51.400;6.692;2023-02-15T14:19:35;17.17;;;11.88;;
78324;SDS011;67584;51.400;6.692;2023-02-15T14:24:52;16.05;;;11.27;;
78324;SDS011;67584;51.400;6.692;2023-02-15T14:27:27;17.45;;;11.95;;
78324;SDS011;67584;51.400;6.692;2023-02-15T14:30:21;19.25;;;12.20;;
78324;SDS011;67584;51.400;6.692;2023-02-15T14:32:52;17.17;;;12.10;;
78324;SDS011;67584;51.400;6.692;2023-02-15T14:35:27;17.73;;;11.90;;
78324;SDS011;67584;51.400;6.692;2023-02-15T14:37:58;17.10;;;10.80;;
78324;SDS011;67584;51.400;6.692;2023-02-15T14:40:32;18.00;;;11.85;;
78324;SDS011;67584;51.400;6.692;2023-02-15T14:46:36;16.80;;;11.00;;
78324;SDS011;67584;51.400;6.692;2023-02-15T14:59:36;14.23;;;9.40;;
78324;SDS011;67584;51.400;6.692;2023-02-15T15:02:09;17.58;;;10.23;;
78324;SDS011;67584;51.400;6.692;2023-02-15T15:07:22;15.45;;;10.60;;
78324;SDS011;67584;51.400;6.692;2023-02-15T15:09:59;14.93;;;10.18;;
78324;SDS011;67584;51.400;6.692;2023-02-15T15:12:41;15.30;;;10.63;;
78324;SDS011;67584;51.400;6.692;2023-02-15T15:15:11;17.50;;;10.60;;
78324;SDS011;67584;51.400;6.692;2023-02-15T15:20:54;16.55;;;9.50;;
78324;SDS011;67584;51.400;6.692;2023-02-15T15:28:53;17.80;;;11.18;;
78324;SDS011;67584;51.400;6.692;2023-02-15T15:31:25;17.92;;;10.38;;
78324;SDS011;67584;51.400;6.692;2023-02-15T15:42:37;15.93;;;11.25;;
78324;SDS011;67584;51.400;6.692;2023-02-15T15:53:05;19.30;;;11.23;;
78324;SDS011;67584;51.400;6.692;2023-02-15T15:55:41;19.90;;;12.38;;
78324;SDS011;67584;51.400;6.692;2023-02-15T15:58:10;23.60;;;12.45;;
78324;SDS011;67584;51.400;6.692;2023-02-15T16:00:54;20.25;;;12.55;;
78324;SDS011;67584;51.400;6.692;2023-02-15T16:03:25;19.55;;;12.23;;
78324;SDS011;67584;51.400;6.692;2023-02-15T16:05:52;18.00;;;11.40;;
78324;SDS011;67584;51.400;6.692;2023-02-15T16:08:31;20.50;;;14.05;;
78324;SDS011;67584;51.400;6.692;2023-02-15T16:10:59;21.27;;;12.82;;
78324;SDS011;67584;51.400;6.692;2023-02-15T16:13:32;20.45;;;11.57;;
78324;SDS011;67584;51.400;6.692;2023-02-15T16:15:58;17.15;;;11.02;;
78324;SDS011;67584;51.400;6.692;2023-02-15T16:18:25;20.73;;;12.77;;
78324;SDS011;67584;51.400;6.692;2023-02-15T16:20:57;16.80;;;11.85;;
78324;SDS011;67584;51.400;6.692;2023-02-15T16:23:30;21.02;;;12.50;;
78324;SDS011;67584;51.400;6.692;2023-02-15T16:26:09;18.77;;;12.27;;
78324;SDS011;67584;51.400;6.692;2023-02-15T16:28:50;19.65;;;12.90;;
78324;SDS011;67584;51.400;6.692;2023-02-15T16:31:18;18.27;;;12.40;;
78324;SDS011;67584;51.400;6.692;2023-02-15T16:33:44;16.48;;;11.13;;
78324;SDS011;67584;51.400;6.692;2023-02-15T16:36:21;16.23;;;11.13;;
78324;SDS011;67584;51.400;6.692;2023-02-15T16:43:47;18.95;;;11.45;;
78324;SDS011;67584;51.400;6.692;2023-02-15T16:46:25;16.15;;;10.93;;
78324;SDS011;67584;51.400;6.692;2023-02-15T16:48:54;16.45;;;11.32;;
78324;SDS011;67584;51.400;6.692;2023-02-15T16:51:25;19.05;;;10.27;;
78324;SDS011;67584;51.400;6.692;2023-02-15T16:53:53;23.08;;;13.35;;
78324;SDS011;67584;51.400;6.692;2023-02-15T16:56:24;21.67;;;14.15;;
78324;SDS011;67584;51.400;6.692;2023-02-15T16:58:53;18.85;;;13.07;;
78324;SDS011;67584;51.400;6.692;2023-02-15T17:01:20;20.10;;;12.50;;
78324;SDS011;67584;51.400;6.692;2023-02-15T17:03:49;16.17;;;12.52;;
78324;SDS011;67584;51.400;6.692;2023-02-15T17:06:18;17.98;;;12.20;;
78324;SDS011;67584;51.400;6.692;2023-02-15T17:08:44;27.33;;;15.77;;
78324;SDS011;67584;51.400;6.692;2023-02-15T17:11:52;21.25;;;13.93;;
78324;SDS011;67584;51.400;6.692;2023-02-15T17:16:45;23.50;;;14.02;;
78324;SDS011;67584;51.400;6.692;2023-02-15T17:19:32;20.83;;;13.05;;
78324;SDS011;67584;51.400;6.692;2023-02-15T17:22:19;18.75;;;12.32;;
78324;SDS011;67584;51.400;6.692;2023-02-15T17:24:59;20.83;;;13.35;;
78324;SDS011;67584;51.400;6.692;2023-02-15T17:27:27;17.58;;;12.02;;
78324;SDS011;67584;51.400;6.692;2023-02-15T17:29:57;20.05;;;13.50;;
78324;SDS011;67584;51.400;6.692;2023-02-15T17:32:29;16.27;;;11.60;;
78324;SDS011;67584;51.400;6.692;2023-02-15T17:42:46;16.48;;;11.98;;
78324;SDS011;67584;51.400;6.692;2023-02-15T17:45:12;17.77;;;11.63;;
78324;SDS011;67584;51.400;6.692;2023-02-15T17:47:39;17.25;;;11.60;;
78324;SDS011;67584;51.400;6.692;2023-02-15T17:50:05;17.95;;;11.52;;
78324;SDS011;67584;51.400;6.692;2023-02-15T17:52:33;17.48;;;11.68;;
78324;SDS011;67584;51.400;6.692;2023-02-15T17:55:01;17.42;;;11.55;;
78324;SDS011;67584;51.400;6.692;2023-02-15T17:57:56;20.35;;;12.05;;
78324;SDS011;67584;51.400;6.692;2023-02-15T18:00:21;19.35;;;11.45;;
78324;SDS011;67584;51.400;6.692;2023-02-15T18:03:08;19.40;;;11.90;;
78324;SDS011;67584;51.400;6.692;2023-02-15T18:05:53;19.88;;;11.95;;